Time;durP1;ratioP1;P1;durP2;ratioP2;P2;SDS_P1;SDS_P2;PMS_P1;PMS_P2;Temp;Humidity;BMP_temperature;BMP_pressure;BME280_temperature;BME280_humidity;BME280_pressure;Samples;Min_cycle;Max_cycle;Signal;HPM_P1;HPM_P2
2022/03/16 00:02:12;;;;;;;12.82;7.90;;;;;;;;;;4946116;29;20054;-77
2022/03/16 00:04:38;;;;;;;12.88;8.35;;;;;;;;;;4947064;29;20035;-78
2022/03/16 00:07:04;;;;;;;13.60;7.82;;;;;;;;;;4952546;29;20051;-77
2022/03/16 00:09:31;;;;;;;13.25;8.20;;;;;;;;;;4960725;29;20038;-78
2022/03/16 00:11:57;;;;;;;14.50;8.52;;;;;;;;;;4960091;29;20065;-78
2022/03/16 00:14:23;;;;;;;12.02;8.35;;;;;;;;;;4946292;29;20488;-77
2022/03/16 00:16:49;;;;;;;11.38;8.15;;;;;;;;;;4966946;29;20055;-78
2022/03/16 00:19:18;;;;;;;14.52;8.85;;;;;;;;;;4966142;29;20039;-78
2022/03/16 00:21:51;;;;;;;13.25;9.50;;;;;;;;;;4948335;29;20035;-78
2022/03/16 00:24:17;;;;;;;16.75;11.27;;;;;;;;;;4966475;29;20039;-78
2022/03/16 00:26:43;;;;;;;16.05;9.13;;;;;;;;;;4949830;29;20088;-77
2022/03/16 00:29:10;;;;;;;20.35;10.43;;;;;;;;;;4947333;29;20043;-78
2022/03/16 00:32:02;;;;;;;19.05;9.80;;;;;;;;;;4946694;29;20028;-78
2022/03/16 00:34:29;;;;;;;16.63;10.27;;;;;;;;;;4949850;29;20106;-78
2022/03/16 00:36:57;;;;;;;18.88;11.20;;;;;;;;;;4963789;29;20106;-77
2022/03/16 00:39:23;;;;;;;21.58;11.18;;;;;;;;;;4957848;29;20035;-78
2022/03/16 00:41:49;;;;;;;20.83;11.43;;;;;;;;;;4964921;29;20392;-77
2022/03/16 00:44:15;;;;;;;24.70;12.10;;;;;;;;;;4959188;29;20097;-78
2022/03/16 00:46:41;;;;;;;20.90;11.50;;;;;;;;;;4954896;28;20027;-78
2022/03/16 00:49:07;;;;;;;19.02;12.10;;;;;;;;;;4959437;29;20027;-78
2022/03/16 00:51:34;;;;;;;21.17;11.57;;;;;;;;;;4964073;28;20047;-78
2022/03/16 00:54:01;;;;;;;22.00;11.88;;;;;;;;;;4964073;29;20086;-78
2022/03/16 00:56:27;;;;;;;30.33;13.13;;;;;;;;;;4965440;28;20167;-77
2022/03/16 00:58:53;;;;;;;19.80;12.00;;;;;;;;;;4946973;29;20039;-78
2022/03/16 01:01:20;;;;;;;24.58;13.45;;;;;;;;;;4947419;29;20035;-78
2022/03/16 01:03:46;;;;;;;21.85;12.98;;;;;;;;;;4963249;29;20120;-78
2022/03/16 01:06:15;;;;;;;25.23;13.38;;;;;;;;;;4964541;29;20031;-78
2022/03/16 01:08:44;;;;;;;24.98;12.73;;;;;;;;;;4963354;29;20056;-78
2022/03/16 01:11:11;;;;;;;28.17;12.57;;;;;;;;;;4963715;29;20027;-77
2022/03/16 01:13:39;;;;;;;28.30;13.15;;;;;;;;;;4947533;29;20050;-77
2022/03/16 01:16:06;;;;;;;31.17;13.57;;;;;;;;;;4965136;29;20035;-77
2022/03/16 01:18:32;;;;;;;33.22;13.10;;;;;;;;;;4964653;29;20027;-77
2022/03/16 01:21:00;;;;;;;30.48;12.95;;;;;;;;;;4963863;29;20058;-78
2022/03/16 01:23:28;;;;;;;30.65;12.30;;;;;;;;;;4957660;29;20062;-78
2022/03/16 01:25:54;;;;;;;30.15;14.52;;;;;;;;;;4966070;29;20027;-77
2022/03/16 01:28:21;;;;;;;35.65;15.15;;;;;;;;;;4965739;29;20119;-78
2022/03/16 01:30:47;;;;;;;30.55;14.32;;;;;;;;;;4948279;29;20141;-78
2022/03/16 01:33:13;;;;;;;30.80;13.95;;;;;;;;;;4941846;29;20035;-78
2022/03/16 01:35:41;;;;;;;30.08;13.40;;;;;;;;;;4957401;29;20054;-78
2022/03/16 01:38:10;;;;;;;28.65;12.90;;;;;;;;;;4948613;29;20069;-79
2022/03/16 01:40:36;;;;;;;23.30;11.88;;;;;;;;;;4945005;29;20063;-78
2022/03/16 01:43:08;;;;;;;22.55;10.80;;;;;;;;;;4943221;29;20476;-78
2022/03/16 01:45:34;;;;;;;18.02;10.20;;;;;;;;;;4949646;29;20070;-78
2022/03/16 01:48:00;;;;;;;16.02;9.02;;;;;;;;;;4953120;29;20062;-78
2022/03/16 01:50:28;;;;;;;19.30;9.50;;;;;;;;;;4966486;29;20543;-78
2022/03/16 01:52:55;;;;;;;16.45;9.90;;;;;;;;;;4943539;29;20063;-78
2022/03/16 01:55:23;;;;;;;15.60;9.90;;;;;;;;;;4940350;29;20038;-78
2022/03/16 01:57:49;;;;;;;17.05;9.68;;;;;;;;;;4947945;29;20051;-78
2022/03/16 02:00:17;;;;;;;20.80;11.30;;;;;;;;;;4946218;29;20044;-78
2022/03/16 02:02:44;;;;;;;22.50;13.10;;;;;;;;;;4940316;29;20097;-78
2022/03/16 02:05:10;;;;;;;29.50;14.57;;;;;;;;;;4947218;29;20031;-77
2022/03/16 02:07:37;;;;;;;24.33;12.02;;;;;;;;;;4947047;29;20060;-78
2022/03/16 02:10:09;;;;;;;18.48;10.38;;;;;;;;;;4939318;29;20034;-77
2022/03/16 02:12:50;;;;;;;20.75;10.27;;;;;;;;;;4938880;29;20028;-78
2022/03/16 02:15:29;;;;;;;22.10;11.10;;;;;;;;;;4945683;29;20020;-78
2022/03/16 02:18:00;;;;;;;22.45;10.77;;;;;;;;;;4938836;29;20689;-78
2022/03/16 02:20:28;;;;;;;21.27;11.05;;;;;;;;;;4945890;29;20046;-78
2022/03/16 02:23:05;;;;;;;24.70;11.05;;;;;;;;;;4947232;29;20004;-78
2022/03/16 02:25:34;;;;;;;22.88;10.98;;;;;;;;;;4939585;29;20496;-78
2022/03/16 02:28:00;;;;;;;24.95;11.13;;;;;;;;;;4949697;29;20031;-78
2022/03/16 02:30:29;;;;;;;20.85;11.63;;;;;;;;;;4941559;29;20031;-79
2022/03/16 02:32:56;;;;;;;18.25;9.73;;;;;;;;;;4945091;29;20484;-78
2022/03/16 02:35:23;;;;;;;16.70;9.00;;;;;;;;;;4937107;29;20036;-78
2022/03/16 02:37:50;;;;;;;17.50;9.00;;;;;;;;;;4942159;29;20082;-78
2022/03/16 02:40:20;;;;;;;17.08;8.48;;;;;;;;;;4935127;29;20087;-77
2022/03/16 02:42:48;;;;;;;19.38;9.38;;;;;;;;;;4935509;29;20035;-77
2022/03/16 02:45:14;;;;;;;14.35;8.73;;;;;;;;;;4944241;29;20023;-78
2022/03/16 02:47:41;;;;;;;17.10;9.43;;;;;;;;;;4943701;29;20040;-79
2022/03/16 02:50:08;;;;;;;18.05;8.75;;;;;;;;;;4943859;29;20494;-78
2022/03/16 02:52:35;;;;;;;14.20;8.82;;;;;;;;;;4954763;29;20500;-77
2022/03/16 02:55:01;;;;;;;16.92;8.15;;;;;;;;;;4943458;29;20028;-77
2022/03/16 02:57:27;;;;;;;16.90;8.48;;;;;;;;;;4944925;29;20035;-78
2022/03/16 02:59:58;;;;;;;21.38;8.30;;;;;;;;;;4961599;29;20019;-77
2022/03/16 03:02:24;;;;;;;14.90;7.75;;;;;;;;;;4961604;29;20083;-77
2022/03/16 03:04:50;;;;;;;14.20;6.68;;;;;;;;;;4961070;29;20029;-77
2022/03/16 03:07:16;;;;;;;14.55;7.65;;;;;;;;;;4962404;29;20031;-78
2022/03/16 03:09:43;;;;;;;14.63;7.18;;;;;;;;;;4961872;29;20039;-77
2022/03/16 03:12:21;;;;;;;17.15;7.18;;;;;;;;;;4948700;29;20168;-78
2022/03/16 03:14:49;;;;;;;14.93;7.18;;;;;;;;;;4952211;29;20051;-77
2022/03/16 03:17:18;;;;;;;16.05;7.05;;;;;;;;;;4950969;29;20031;-78
2022/03/16 03:19:48;;;;;;;14.48;6.55;;;;;;;;;;4942569;29;20034;-77
2022/03/16 03:22:15;;;;;;;16.63;7.03;;;;;;;;;;4961836;29;20035;-78
2022/03/16 03:24:44;;;;;;;12.02;6.88;;;;;;;;;;4966443;29;20023;-77
2022/03/16 03:27:11;;;;;;;17.77;8.95;;;;;;;;;;4966156;29;20114;-77
2022/03/16 03:29:38;;;;;;;15.00;7.35;;;;;;;;;;4950028;29;20020;-77
2022/03/16 03:32:05;;;;;;;14.75;7.60;;;;;;;;;;4966556;29;20031;-78
2022/03/16 03:34:31;;;;;;;15.43;8.30;;;;;;;;;;4947737;29;20067;-78
2022/03/16 03:36:59;;;;;;;13.80;8.25;;;;;;;;;;4958568;29;20055;-78
2022/03/16 03:39:25;;;;;;;14.23;8.45;;;;;;;;;;4959099;29;20145;-77
2022/03/16 03:41:51;;;;;;;19.17;8.55;;;;;;;;;;4960128;29;20071;-77
2022/03/16 03:44:17;;;;;;;13.00;8.15;;;;;;;;;;4969645;29;20012;-78
2022/03/16 03:46:48;;;;;;;13.30;7.68;;;;;;;;;;4964222;29;20536;-78
2022/03/16 03:49:16;;;;;;;14.02;7.95;;;;;;;;;;4949894;29;20066;-78
2022/03/16 03:51:42;;;;;;;14.20;8.55;;;;;;;;;;4965468;29;20122;-77
2022/03/16 03:54:08;;;;;;;15.75;8.52;;;;;;;;;;4951092;29;20028;-77
2022/03/16 03:56:34;;;;;;;13.75;8.23;;;;;;;;;;4954799;29;20036;-77
2022/03/16 03:59:01;;;;;;;15.32;8.50;;;;;;;;;;4958014;29;20039;-77
2022/03/16 04:01:27;;;;;;;15.82;8.70;;;;;;;;;;4943034;29;20035;-77
2022/03/16 04:03:53;;;;;;;21.80;11.05;;;;;;;;;;4964693;29;20027;-78
2022/03/16 04:06:19;;;;;;;23.95;10.88;;;;;;;;;;4945122;29;20497;-77
2022/03/16 04:08:46;;;;;;;28.75;11.32;;;;;;;;;;4947613;29;20046;-79
2022/03/16 04:11:12;;;;;;;33.20;12.05;;;;;;;;;;4960940;29;20031;-77
2022/03/16 04:13:43;;;;;;;22.40;10.90;;;;;;;;;;4957276;29;20024;-78
2022/03/16 04:16:09;;;;;;;17.35;11.50;;;;;;;;;;4956221;29;20099;-77
2022/03/16 04:18:36;;;;;;;25.85;14.27;;;;;;;;;;4948157;29;20023;-78
2022/03/16 04:21:02;;;;;;;28.88;13.20;;;;;;;;;;4963543;29;20043;-76
2022/03/16 04:23:29;;;;;;;32.65;14.27;;;;;;;;;;4956269;29;20035;-76
2022/03/16 04:25:55;;;;;;;31.33;15.65;;;;;;;;;;4958459;29;20095;-76
2022/03/16 04:28:21;;;;;;;21.45;12.38;;;;;;;;;;4959099;29;20050;-76
2022/03/16 04:30:47;;;;;;;22.95;11.35;;;;;;;;;;4945088;29;20106;-76
2022/03/16 04:33:13;;;;;;;30.20;16.75;;;;;;;;;;4945878;29;20042;-76
2022/03/16 04:35:39;;;;;;;39.55;19.85;;;;;;;;;;4956472;29;20039;-77
2022/03/16 04:38:08;;;;;;;45.67;23.52;;;;;;;;;;4965103;29;20493;-76
2022/03/16 04:40:34;;;;;;;31.35;16.85;;;;;;;;;;4949541;29;20039;-76
2022/03/16 04:43:00;;;;;;;21.67;10.77;;;;;;;;;;4948753;29;20062;-77
2022/03/16 04:45:26;;;;;;;26.77;14.05;;;;;;;;;;4964457;29;20508;-77
2022/03/16 04:47:54;;;;;;;29.85;12.13;;;;;;;;;;4965862;29;20106;-77
2022/03/16 04:50:21;;;;;;;28.08;13.35;;;;;;;;;;4954267;29;20091;-75
2022/03/16 04:52:48;;;;;;;33.83;19.67;;;;;;;;;;4959765;28;20054;-75
2022/03/16 04:55:14;;;;;;;28.30;15.95;;;;;;;;;;4944533;29;20110;-77
2022/03/16 04:57:41;;;;;;;28.05;14.93;;;;;;;;;;4963149;29;20027;-77
2022/03/16 05:00:08;;;;;;;25.10;12.52;;;;;;;;;;4956604;29;20031;-76
2022/03/16 05:02:34;;;;;;;21.45;10.50;;;;;;;;;;4960418;29;20035;-76
2022/03/16 05:05:00;;;;;;;18.52;9.85;;;;;;;;;;4963136;29;20042;-76
2022/03/16 05:07:26;;;;;;;31.88;12.15;;;;;;;;;;4946054;29;20042;-76
2022/03/16 05:10:02;;;;;;;19.33;10.68;;;;;;;;;;4954917;28;20428;-76
2022/03/16 05:12:36;;;;;;;25.48;13.88;;;;;;;;;;4958416;29;20031;-75
2022/03/16 05:15:05;;;;;;;23.70;12.70;;;;;;;;;;4960875;28;20433;-75
2022/03/16 05:17:31;;;;;;;30.00;12.35;;;;;;;;;;4961799;29;20059;-75
2022/03/16 05:19:57;;;;;;;21.70;11.98;;;;;;;;;;4940008;29;20390;-76
2022/03/16 05:22:25;;;;;;;24.77;11.50;;;;;;;;;;4954478;29;20039;-75
2022/03/16 05:24:51;;;;;;;28.15;11.23;;;;;;;;;;4953122;29;20016;-75
2022/03/16 05:27:20;;;;;;;32.67;11.95;;;;;;;;;;4945534;29;20396;-77
2022/03/16 05:29:48;;;;;;;34.60;12.40;;;;;;;;;;4947067;29;20487;-75
2022/03/16 05:32:14;;;;;;;29.08;12.65;;;;;;;;;;4962031;29;20082;-74
2022/03/16 05:34:41;;;;;;;30.63;11.02;;;;;;;;;;4967095;29;20054;-73
2022/03/16 05:37:07;;;;;;;27.98;12.20;;;;;;;;;;4968606;29;20023;-74
2022/03/16 05:39:33;;;;;;;21.67;12.02;;;;;;;;;;4974189;29;20070;-77
2022/03/16 05:42:03;;;;;;;22.33;9.40;;;;;;;;;;4972215;29;20042;-73
2022/03/16 05:44:29;;;;;;;16.73;8.02;;;;;;;;;;4965957;29;20027;-74
2022/03/16 05:46:57;;;;;;;23.52;7.95;;;;;;;;;;4971144;29;20027;-75
2022/03/16 05:49:25;;;;;;;18.15;8.50;;;;;;;;;;4954798;29;20026;-72
2022/03/16 05:51:51;;;;;;;15.40;7.88;;;;;;;;;;4964228;29;20070;-74
2022/03/16 05:54:17;;;;;;;12.35;8.05;;;;;;;;;;4969589;29;20035;-71
2022/03/16 05:56:44;;;;;;;19.80;8.00;;;;;;;;;;4967989;29;20023;-73
2022/03/16 05:59:10;;;;;;;22.52;8.55;;;;;;;;;;4967699;29;20039;-76
2022/03/16 06:01:36;;;;;;;27.70;8.60;;;;;;;;;;4960630;29;20038;-74
2022/03/16 06:04:02;;;;;;;18.70;8.43;;;;;;;;;;4960139;28;20041;-73
2022/03/16 06:06:29;;;;;;;23.88;10.07;;;;;;;;;;4958995;28;20027;-72
2022/03/16 06:08:55;;;;;;;20.40;9.90;;;;;;;;;;4948486;29;20027;-77
2022/03/16 06:11:21;;;;;;;27.90;10.57;;;;;;;;;;4974643;28;20074;-70
2022/03/16 06:13:48;;;;;;;21.52;9.73;;;;;;;;;;4975936;28;20030;-71
2022/03/16 06:16:14;;;;;;;19.55;8.82;;;;;;;;;;4969031;28;20051;-70
2022/03/16 06:18:42;;;;;;;18.88;9.38;;;;;;;;;;4976335;28;20030;-71
2022/03/16 06:21:08;;;;;;;19.83;8.48;;;;;;;;;;4966830;29;20052;-76
2022/03/16 06:23:35;;;;;;;18.58;8.40;;;;;;;;;;4963446;29;20020;-76
2022/03/16 06:26:04;;;;;;;23.15;8.40;;;;;;;;;;4968526;29;20023;-74
2022/03/16 06:28:31;;;;;;;28.17;7.50;;;;;;;;;;4965048;29;20034;-76
2022/03/16 06:30:57;;;;;;;19.13;7.60;;;;;;;;;;4968232;29;20034;-73
2022/03/16 06:33:23;;;;;;;22.95;8.02;;;;;;;;;;4960168;29;20058;-76
2022/03/16 06:35:49;;;;;;;20.35;9.65;;;;;;;;;;4957587;29;20054;-74
2022/03/16 06:38:15;;;;;;;14.00;7.18;;;;;;;;;;4973086;29;20011;-75
2022/03/16 06:40:43;;;;;;;20.83;7.28;;;;;;;;;;4954424;29;20043;-75
2022/03/16 06:43:19;;;;;;;47.72;27.90;;;;;;;;;;4951328;29;20023;-73
2022/03/16 06:45:48;;;;;;;25.48;16.90;;;;;;;;;;4956022;29;20015;-75
2022/03/16 06:48:21;;;;;;;19.40;10.15;;;;;;;;;;4942953;28;23483;-76
2022/03/16 06:50:48;;;;;;;16.95;7.88;;;;;;;;;;4955417;28;20024;-76
2022/03/16 06:53:14;;;;;;;13.18;6.80;;;;;;;;;;4962032;28;20105;-76
2022/03/16 06:55:40;;;;;;;12.02;6.78;;;;;;;;;;4947695;29;20042;-78
2022/03/16 06:58:07;;;;;;;15.85;7.43;;;;;;;;;;4951018;29;20035;-72
2022/03/16 07:00:33;;;;;;;17.05;7.40;;;;;;;;;;4955557;29;20036;-73
2022/03/16 07:03:00;;;;;;;18.20;8.40;;;;;;;;;;4964494;28;20038;-73
2022/03/16 07:05:36;;;;;;;23.75;10.35;;;;;;;;;;4969747;28;20082;-71
2022/03/16 07:08:32;;;;;;;33.72;7.80;;;;;;;;;;4959806;29;20126;-71
2022/03/16 07:10:59;;;;;;;18.15;6.68;;;;;;;;;;4935256;29;20114;-70
2022/03/16 07:13:28;;;;;;;13.68;6.95;;;;;;;;;;4943972;29;20040;-73
2022/03/16 07:16:01;;;;;;;18.13;7.45;;;;;;;;;;4955376;28;20038;-73
2022/03/16 07:18:28;;;;;;;14.13;6.80;;;;;;;;;;4937643;29;20047;-72
2022/03/16 07:20:56;;;;;;;10.38;6.18;;;;;;;;;;4935770;29;20054;-73
2022/03/16 07:23:48;;;;;;;14.50;6.22;;;;;;;;;;4959513;29;20057;-70
2022/03/16 07:26:30;;;;;;;10.23;6.20;;;;;;;;;;4962307;29;20082;-75
2022/03/16 07:28:56;;;;;;;9.55;6.28;;;;;;;;;;4912537;29;20159;-72
2022/03/16 07:31:28;;;;;;;20.17;11.68;;;;;;;;;;4929170;29;20036;-73
2022/03/16 07:33:54;;;;;;;50.75;7.85;;;;;;;;;;4900655;29;20529;-73
2022/03/16 07:36:23;;;;;;;12.05;6.93;;;;;;;;;;4915589;29;20124;-73
2022/03/16 07:38:49;;;;;;;17.55;8.10;;;;;;;;;;4921418;29;20056;-73
2022/03/16 07:41:17;;;;;;;16.90;9.57;;;;;;;;;;4902385;29;20430;-75
2022/03/16 07:43:43;;;;;;;16.67;7.50;;;;;;;;;;4916251;29;20170;-76
2022/03/16 07:46:09;;;;;;;11.82;6.20;;;;;;;;;;4915569;29;20044;-77
2022/03/16 07:48:39;;;;;;;37.58;6.95;;;;;;;;;;4909171;29;20033;-75
2022/03/16 07:51:05;;;;;;;21.13;7.45;;;;;;;;;;4899272;29;20092;-75
2022/03/16 07:53:31;;;;;;;14.50;8.00;;;;;;;;;;4908736;29;20489;-74
2022/03/16 07:56:03;;;;;;;21.38;9.05;;;;;;;;;;4920278;29;20047;-76
2022/03/16 07:58:29;;;;;;;20.80;8.80;;;;;;;;;;4927820;29;20065;-74
2022/03/16 08:00:55;;;;;;;25.42;10.20;;;;;;;;;;4949193;29;20043;-71
2022/03/16 08:03:21;;;;;;;13.82;8.13;;;;;;;;;;4965777;28;20122;-72
2022/03/16 08:05:58;;;;;;;22.98;9.63;;;;;;;;;;4965745;28;20023;-72
2022/03/16 08:08:25;;;;;;;25.50;11.32;;;;;;;;;;4950846;29;20027;-73
2022/03/16 08:10:54;;;;;;;19.90;9.43;;;;;;;;;;4959444;29;20115;-72
2022/03/16 08:13:23;;;;;;;34.60;15.32;;;;;;;;;;4958602;28;20027;-72
2022/03/16 08:15:49;;;;;;;19.77;9.73;;;;;;;;;;4957768;28;20047;-73
2022/03/16 08:18:15;;;;;;;14.30;8.32;;;;;;;;;;4948520;29;20121;-71
2022/03/16 08:20:41;;;;;;;15.60;8.48;;;;;;;;;;4954000;28;20047;-75
2022/03/16 08:23:07;;;;;;;18.45;8.88;;;;;;;;;;4954712;28;20066;-73
2022/03/16 08:25:33;;;;;;;14.70;10.02;;;;;;;;;;4953394;28;20083;-74
2022/03/16 08:28:00;;;;;;;12.98;8.30;;;;;;;;;;4955763;29;20161;-73
2022/03/16 08:30:26;;;;;;;18.98;8.10;;;;;;;;;;4939266;29;20034;-72
2022/03/16 08:32:52;;;;;;;16.50;9.07;;;;;;;;;;4954467;29;20027;-75
2022/03/16 08:35:18;;;;;;;14.45;8.73;;;;;;;;;;4966113;28;20827;-73
2022/03/16 08:37:44;;;;;;;15.15;8.00;;;;;;;;;;4957208;29;20055;-76
2022/03/16 08:40:11;;;;;;;12.00;7.65;;;;;;;;;;4967208;28;20031;-73
2022/03/16 08:42:37;;;;;;;11.50;7.65;;;;;;;;;;4966849;28;20023;-74
2022/03/16 08:45:03;;;;;;;13.50;7.75;;;;;;;;;;4951057;28;20034;-71
2022/03/16 08:47:32;;;;;;;12.35;7.15;;;;;;;;;;4952567;29;20031;-69
2022/03/16 08:49:58;;;;;;;19.60;8.90;;;;;;;;;;4956901;28;20031;-76
2022/03/16 08:52:24;;;;;;;14.52;8.80;;;;;;;;;;4957834;28;20039;-72
2022/03/16 08:54:51;;;;;;;17.60;8.38;;;;;;;;;;4955946;28;20027;-74
2022/03/16 08:57:17;;;;;;;13.57;8.30;;;;;;;;;;4956555;28;20034;-73
2022/03/16 08:59:43;;;;;;;14.60;8.80;;;;;;;;;;4962300;29;20168;-73
2022/03/16 09:02:12;;;;;;;13.07;7.72;;;;;;;;;;4949073;29;20497;-76
2022/03/16 09:04:38;;;;;;;13.07;7.70;;;;;;;;;;4958831;28;20082;-74
2022/03/16 09:07:04;;;;;;;17.92;10.52;;;;;;;;;;4955421;28;20112;-74
2022/03/16 09:09:31;;;;;;;16.38;9.38;;;;;;;;;;4953576;29;20106;-72
2022/03/16 09:11:57;;;;;;;18.00;8.93;;;;;;;;;;4955392;29;20023;-71
2022/03/16 09:14:23;;;;;;;12.55;8.02;;;;;;;;;;4949186;28;20039;-74
2022/03/16 09:16:50;;;;;;;18.15;8.82;;;;;;;;;;4963945;28;20049;-72
2022/03/16 09:19:20;;;;;;;14.90;7.68;;;;;;;;;;4959144;28;20019;-74
2022/03/16 09:21:47;;;;;;;14.25;7.55;;;;;;;;;;4954439;29;20035;-74
2022/03/16 09:24:13;;;;;;;17.77;11.98;;;;;;;;;;4950109;28;20015;-75
2022/03/16 09:26:40;;;;;;;12.30;8.10;;;;;;;;;;4956493;28;20055;-75
2022/03/16 09:29:08;;;;;;;30.25;18.92;;;;;;;;;;4956612;29;20027;-72
2022/03/16 09:31:51;;;;;;;16.10;10.93;;;;;;;;;;4960231;28;20029;-71
2022/03/16 09:34:20;;;;;;;13.60;7.40;;;;;;;;;;4957487;28;20167;-74
2022/03/16 09:36:46;;;;;;;12.63;6.90;;;;;;;;;;4958787;28;20417;-72
2022/03/16 09:39:12;;;;;;;14.80;8.25;;;;;;;;;;4942003;28;20375;-72
2022/03/16 09:41:38;;;;;;;15.60;7.70;;;;;;;;;;4956193;28;20102;-72
2022/03/16 09:44:06;;;;;;;17.17;7.60;;;;;;;;;;4955247;29;20028;-72
2022/03/16 09:46:33;;;;;;;16.38;8.52;;;;;;;;;;4939951;29;20553;-72
2022/03/16 09:49:00;;;;;;;16.45;8.38;;;;;;;;;;4949556;28;20115;-71
2022/03/16 09:51:26;;;;;;;12.98;7.80;;;;;;;;;;4959280;28;20575;-73
2022/03/16 09:53:53;;;;;;;15.10;7.55;;;;;;;;;;4949529;28;20043;-72
2022/03/16 09:56:22;;;;;;;13.48;7.32;;;;;;;;;;4966745;28;20151;-72
2022/03/16 09:58:49;;;;;;;11.85;7.75;;;;;;;;;;4953028;28;20031;-73
2022/03/16 10:01:15;;;;;;;12.98;8.10;;;;;;;;;;4950961;28;20524;-73
2022/03/16 10:03:41;;;;;;;15.20;8.48;;;;;;;;;;4954253;29;20134;-73
2022/03/16 10:06:08;;;;;;;11.48;7.75;;;;;;;;;;4953758;29;20481;-73
2022/03/16 10:08:36;;;;;;;13.60;7.97;;;;;;;;;;4954847;28;20034;-73
2022/03/16 10:13:53;;;;;;;10.57;8.38;;;;;;;;;;4953630;29;20098;-73
2022/03/16 10:16:20;;;;;;;12.50;8.13;;;;;;;;;;4957464;28;20523;-73
2022/03/16 10:18:53;;;;;;;12.38;7.97;;;;;;;;;;4954747;29;20465;-73
2022/03/16 10:21:19;;;;;;;;;;;;;;;;;;4958893;28;20055;-73
2022/03/16 10:23:45;;;;;;;18.20;8.20;;;;;;;;;;4957284;28;20001;-71
2022/03/16 10:26:16;;;;;;;15.32;9.27;;;;;;;;;;4962993;28;20035;-77
2022/03/16 10:28:42;;;;;;;16.83;8.52;;;;;;;;;;4956950;28;20020;-76
2022/03/16 10:31:11;;;;;;;15.50;8.93;;;;;;;;;;4927534;29;20032;-72
2022/03/16 10:33:44;;;;;;;15.52;8.60;;;;;;;;;;4934959;29;20391;-74
2022/03/16 10:36:11;;;;;;;18.95;8.73;;;;;;;;;;4931115;29;20091;-73
2022/03/16 10:38:40;;;;;;;14.10;10.20;;;;;;;;;;4916393;29;20070;-74
2022/03/16 10:46:34;;;;;;;24.60;13.80;;;;;;;;;;4944138;29;20047;-72
2022/03/16 10:46:49;;;;;;;13.55;8.48;;;;;;;;;;4946523;29;20118;-71
2022/03/16 10:49:53;;;;;;;16.90;9.70;;;;;;;;;;4947692;29;20035;-74
2022/03/16 10:52:27;;;;;;;13.77;9.55;;;;;;;;;;4951427;28;20112;-74
2022/03/16 10:54:53;;;;;;;13.93;10.27;;;;;;;;;;4916192;29;20030;-75
2022/03/16 10:57:21;;;;;;;14.70;9.02;;;;;;;;;;4943112;29;20045;-76
2022/03/16 10:59:50;;;;;;;25.52;10.65;;;;;;;;;;4939551;29;20051;-77
2022/03/16 11:02:18;;;;;;;18.05;9.95;;;;;;;;;;4950966;29;20134;-77
2022/03/16 11:04:45;;;;;;;16.10;9.73;;;;;;;;;;4954784;28;20031;-73
2022/03/16 11:07:12;;;;;;;17.75;10.20;;;;;;;;;;4936990;28;20086;-74
2022/03/16 11:09:41;;;;;;;20.88;10.23;;;;;;;;;;4958363;28;20563;-77
2022/03/16 11:14:53;;;;;;;21.40;11.10;;;;;;;;;;4957584;28;20046;-76
2022/03/16 11:17:20;;;;;;;29.90;10.35;;;;;;;;;;4940050;29;20019;-76
2022/03/16 11:19:55;;;;;;;19.38;10.57;;;;;;;;;;4918620;29;20023;-79
2022/03/16 11:22:21;;;;;;;17.20;10.60;;;;;;;;;;4958608;29;20050;-75
2022/03/16 11:24:48;;;;;;;21.35;10.60;;;;;;;;;;4956195;29;20028;-75
2022/03/16 11:27:22;;;;;;;16.58;10.35;;;;;;;;;;4958452;29;20032;-74
2022/03/16 11:30:07;;;;;;;15.30;10.30;;;;;;;;;;4961023;29;20031;-73
2022/03/16 11:32:40;;;;;;;17.73;9.80;;;;;;;;;;4953451;28;20118;-76
2022/03/16 11:35:10;;;;;;;15.10;11.10;;;;;;;;;;4956765;29;20027;-77
2022/03/16 11:37:45;;;;;;;20.35;10.50;;;;;;;;;;4955309;29;20074;-73
2022/03/16 11:40:14;;;;;;;17.60;11.70;;;;;;;;;;4953959;28;20034;-73
2022/03/16 11:43:11;;;;;;;16.38;11.05;;;;;;;;;;4958385;28;20042;-75
2022/03/16 11:45:39;;;;;;;15.75;10.68;;;;;;;;;;4970280;28;20023;-73
2022/03/16 11:48:23;;;;;;;16.65;9.88;;;;;;;;;;4963373;28;20014;-76
2022/03/16 11:51:11;;;;;;;15.48;9.55;;;;;;;;;;4961481;29;20954;-75
2022/03/16 11:53:57;;;;;;;17.40;10.73;;;;;;;;;;4965940;29;20054;-74
2022/03/16 11:56:29;;;;;;;16.27;10.55;;;;;;;;;;4949127;29;20031;-75
2022/03/16 11:59:05;;;;;;;18.52;10.50;;;;;;;;;;4957083;28;20050;-76
2022/03/16 12:01:34;;;;;;;17.17;11.35;;;;;;;;;;4972323;28;20093;-75
2022/03/16 12:04:22;;;;;;;14.82;10.20;;;;;;;;;;4965473;29;20062;-72
2022/03/16 12:07:09;;;;;;;17.40;10.13;;;;;;;;;;4944454;29;20122;-72
2022/03/16 12:09:56;;;;;;;18.92;10.05;;;;;;;;;;4947747;29;20034;-74
2022/03/16 12:15:30;;;;;;;14.63;10.13;;;;;;;;;;4963270;28;20043;-74
2022/03/16 12:18:05;;;;;;;14.77;10.25;;;;;;;;;;4951318;28;20031;-72
2022/03/16 12:21:15;;;;;;;15.90;9.88;;;;;;;;;;4962038;29;20039;-72
2022/03/16 12:25:08;;;;;;;18.63;10.10;;;;;;;;;;4914172;29;20045;-72
2022/03/16 12:28:55;;;;;;;;;;;;;;;;;;4898281;29;20047;-73
2022/03/16 12:29:32;;;;;;;19.00;11.20;;;;;;;;;;4903230;29;19915;-72
2022/03/16 12:32:00;;;;;;;20.88;11.57;;;;;;;;;;4911220;29;20635;-72
2022/03/16 12:34:29;;;;;;;20.90;11.82;;;;;;;;;;4896944;29;20097;-71
2022/03/16 12:36:57;;;;;;;18.02;11.75;;;;;;;;;;4896627;29;20053;-72
2022/03/16 12:39:25;;;;;;;17.05;11.90;;;;;;;;;;4907738;29;20434;-72
2022/03/16 12:44:46;;;;;;;18.40;12.82;;;;;;;;;;4901773;29;20068;-75
2022/03/16 12:47:25;;;;;;;17.70;12.35;;;;;;;;;;4890208;29;20041;-72
2022/03/16 12:49:52;;;;;;;22.63;11.82;;;;;;;;;;4904303;29;20038;-73
2022/03/16 12:52:20;;;;;;;21.13;12.07;;;;;;;;;;4906398;29;20055;-75
2022/03/16 12:54:46;;;;;;;17.35;12.00;;;;;;;;;;4942826;28;20123;-74
2022/03/16 12:57:13;;;;;;;24.63;15.38;;;;;;;;;;4951208;28;20034;-72
2022/03/16 13:00:05;;;;;;;24.30;12.70;;;;;;;;;;4965052;29;20038;-75
2022/03/16 13:02:30;;;;;;;35.17;25.33;;;;;;;;;;4941969;28;20508;-70
2022/03/16 13:04:57;;;;;;;22.27;18.00;;;;;;;;;;4947855;28;20031;-70
2022/03/16 13:07:24;;;;;;;20.88;14.32;;;;;;;;;;4950221;28;20182;-71
2022/03/16 13:09:50;;;;;;;24.30;15.13;;;;;;;;;;4950223;28;20023;-75
2022/03/16 13:12:16;;;;;;;20.30;12.00;;;;;;;;;;4946502;28;20035;-74
2022/03/16 13:14:47;;;;;;;24.60;13.73;;;;;;;;;;4950754;29;20042;-74
2022/03/16 13:17:13;;;;;;;19.98;13.43;;;;;;;;;;4954984;28;20023;-71
2022/03/16 13:19:41;;;;;;;20.63;13.00;;;;;;;;;;4951271;28;20050;-71
2022/03/16 13:22:09;;;;;;;20.50;12.48;;;;;;;;;;4954611;28;20092;-72
2022/03/16 13:24:37;;;;;;;26.58;15.40;;;;;;;;;;4959763;29;20047;-73
2022/03/16 13:27:04;;;;;;;23.10;16.08;;;;;;;;;;4948957;29;20042;-73
2022/03/16 13:29:32;;;;;;;16.45;12.50;;;;;;;;;;4966678;29;20023;-73
2022/03/16 13:32:02;;;;;;;25.35;12.93;;;;;;;;;;4965923;28;20032;-72
2022/03/16 13:34:28;;;;;;;23.98;12.85;;;;;;;;;;4966333;29;20027;-72
2022/03/16 13:36:55;;;;;;;19.73;12.50;;;;;;;;;;4967679;29;20381;-72
2022/03/16 13:39:21;;;;;;;21.05;12.35;;;;;;;;;;4965098;29;20034;-72
2022/03/16 13:42:11;;;;;;;21.52;12.82;;;;;;;;;;4965844;29;20489;-72
2022/03/16 13:44:37;;;;;;;21.73;14.25;;;;;;;;;;4955958;28;20023;-72
2022/03/16 13:47:27;;;;;;;23.35;17.15;;;;;;;;;;4970761;28;20102;-72
2022/03/16 13:49:55;;;;;;;18.80;14.98;;;;;;;;;;4965512;28;20481;-72
2022/03/16 13:52:23;;;;;;;23.90;16.52;;;;;;;;;;4974221;28;20047;-72
2022/03/16 13:54:49;;;;;;;21.90;14.88;;;;;;;;;;4967562;28;20037;-72
2022/03/16 13:57:17;;;;;;;22.90;14.43;;;;;;;;;;4967713;28;20034;-73
2022/03/16 13:59:55;;;;;;;23.02;13.75;;;;;;;;;;4969928;28;20106;-75
2022/03/16 14:02:26;;;;;;;22.20;13.93;;;;;;;;;;4957111;28;20166;-73
2022/03/16 14:04:56;;;;;;;24.55;13.50;;;;;;;;;;4963580;28;20631;-74
2022/03/16 14:07:26;;;;;;;25.77;13.38;;;;;;;;;;4959957;28;20027;-72
2022/03/16 14:09:53;;;;;;;20.08;13.30;;;;;;;;;;4952921;28;20024;-71
2022/03/16 14:12:19;;;;;;;21.42;13.35;;;;;;;;;;4947207;28;20392;-75
2022/03/16 14:14:46;;;;;;;22.88;13.18;;;;;;;;;;4949014;28;20028;-72
2022/03/16 14:17:13;;;;;;;18.13;13.25;;;;;;;;;;4956273;28;20063;-76
2022/03/16 14:19:43;;;;;;;16.13;12.43;;;;;;;;;;4958318;29;20023;-73
2022/03/16 14:22:15;;;;;;;22.15;14.82;;;;;;;;;;4954505;28;20081;-75
2022/03/16 14:24:41;;;;;;;20.83;15.15;;;;;;;;;;4932959;29;20027;-72
2022/03/16 14:27:19;;;;;;;17.08;12.35;;;;;;;;;;4952815;29;20035;-73
2022/03/16 14:29:46;;;;;;;19.38;14.27;;;;;;;;;;4934357;29;20027;-74
2022/03/16 14:32:13;;;;;;;21.05;13.93;;;;;;;;;;4953483;28;20063;-74
2022/03/16 14:34:40;;;;;;;20.15;13.50;;;;;;;;;;4950559;29;20059;-73
2022/03/16 14:37:06;;;;;;;21.08;14.52;;;;;;;;;;4949771;29;20050;-72
2022/03/16 14:39:44;;;;;;;20.98;14.15;;;;;;;;;;4938896;28;20172;-71
2022/03/16 14:42:10;;;;;;;19.95;14.07;;;;;;;;;;4946200;28;20039;-73
2022/03/16 14:44:36;;;;;;;21.83;14.73;;;;;;;;;;4966100;28;20019;-77
2022/03/16 14:47:02;;;;;;;22.42;13.85;;;;;;;;;;4970779;28;20066;-77
2022/03/16 14:49:36;;;;;;;22.52;14.80;;;;;;;;;;4962446;29;20031;-76